sensor_id;sensor_type;location;lat;lon;timestamp;P1;durP1;ratioP1;P2;durP2;ratioP2
44434;SDS011;30138;20.964;105.830;2023-07-24T00:00:35;2.85;;;1.58;;
44434;SDS011;30138;20.964;105.830;2023-07-24T00:05:44;2.27;;;1.50;;
44434;SDS011;30138;20.964;105.830;2023-07-24T00:10:52;2.08;;;1.30;;
44434;SDS011;30138;20.964;105.830;2023-07-24T00:16:04;1.50;;;1.40;;
44434;SDS011;30138;20.964;105.830;2023-07-24T00:21:14;2.38;;;1.65;;
44434;SDS011;30138;20.964;105.830;2023-07-24T00:26:22;2.92;;;1.50;;
44434;SDS011;30138;20.964;105.830;2023-07-24T00:31:34;1.60;;;1.50;;
44434;SDS011;30138;20.964;105.830;2023-07-24T00:36:44;4.25;;;1.60;;
44434;SDS011;30138;20.964;105.830;2023-07-24T00:41:52;2.10;;;1.38;;
44434;SDS011;30138;20.964;105.830;2023-07-24T00:47:02;1.63;;;1.50;;
44434;SDS011;30138;20.964;105.830;2023-07-24T00:52:12;2.97;;;1.60;;
44434;SDS011;30138;20.964;105.830;2023-07-24T00:57:20;2.03;;;1.45;;
44434;SDS011;30138;20.964;105.830;2023-07-24T01:02:32;1.60;;;1.50;;
44434;SDS011;30138;20.964;105.830;2023-07-24T01:07:42;1.88;;;1.40;;
44434;SDS011;30138;20.964;105.830;2023-07-24T01:12:51;2.05;;;1.30;;
44434;SDS011;30138;20.964;105.830;2023-07-24T01:18:12;3.30;;;1.38;;
44434;SDS011;30138;20.964;105.830;2023-07-24T01:23:33;2.42;;;1.73;;
44434;SDS011;30138;20.964;105.830;2023-07-24T01:28:58;2.03;;;1.80;;
44434;SDS011;30138;20.964;105.830;2023-07-24T01:34:06;2.20;;;1.65;;
44434;SDS011;30138;20.964;105.830;2023-07-24T01:39:15;1.77;;;1.60;;
44434;SDS011;30138;20.964;105.830;2023-07-24T01:44:26;2.75;;;1.90;;
44434;SDS011;30138;20.964;105.830;2023-07-24T01:49:35;2.50;;;1.70;;
44434;SDS011;30138;20.964;105.830;2023-07-24T01:54:44;2.75;;;1.92;;
44434;SDS011;30138;20.964;105.830;2023-07-24T01:59:55;1.98;;;1.77;;
44434;SDS011;30138;20.964;105.830;2023-07-24T02:05:03;3.88;;;1.70;;
44434;SDS011;30138;20.964;105.830;2023-07-24T02:10:12;1.85;;;1.50;;
44434;SDS011;30138;20.964;105.830;2023-07-24T02:15:25;3.13;;;2.03;;
44434;SDS011;30138;20.964;105.830;2023-07-24T02:20:35;2.53;;;1.90;;
44434;SDS011;30138;20.964;105.830;2023-07-24T02:25:44;2.05;;;1.80;;
44434;SDS011;30138;20.964;105.830;2023-07-24T02:30:58;2.55;;;1.63;;
44434;SDS011;30138;20.964;105.830;2023-07-24T02:36:07;1.83;;;1.67;;
44434;SDS011;30138;20.964;105.830;2023-07-24T02:41:16;3.05;;;1.70;;
44434;SDS011;30138;20.964;105.830;2023-07-24T02:46:28;2.53;;;1.65;;
44434;SDS011;30138;20.964;105.830;2023-07-24T02:51:36;2.20;;;1.60;;
44434;SDS011;30138;20.964;105.830;2023-07-24T02:56:45;2.13;;;1.75;;
44434;SDS011;30138;20.964;105.830;2023-07-24T03:01:55;2.72;;;1.90;;
44434;SDS011;30138;20.964;105.830;2023-07-24T03:07:03;2.55;;;1.70;;
44434;SDS011;30138;20.964;105.830;2023-07-24T03:12:12;2.03;;;1.60;;
44434;SDS011;30138;20.964;105.830;2023-07-24T03:17:22;3.25;;;1.88;;
44434;SDS011;30138;20.964;105.830;2023-07-24T03:22:31;3.17;;;1.60;;
44434;SDS011;30138;20.964;105.830;2023-07-24T03:27:39;2.53;;;1.80;;
44434;SDS011;30138;20.964;105.830;2023-07-24T03:32:49;1.65;;;1.55;;
44434;SDS011;30138;20.964;105.830;2023-07-24T03:37:58;2.17;;;1.60;;
44434;SDS011;30138;20.964;105.830;2023-07-24T03:43:07;1.42;;;1.33;;
44434;SDS011;30138;20.964;105.830;2023-07-24T03:48:18;2.25;;;1.60;;
44434;SDS011;30138;20.964;105.830;2023-07-24T03:53:26;1.80;;;1.70;;
44434;SDS011;30138;20.964;105.830;2023-07-24T03:58:34;2.45;;;1.50;;
44434;SDS011;30138;20.964;105.830;2023-07-24T04:03:45;1.85;;;1.58;;
44434;SDS011;30138;20.964;105.830;2023-07-24T04:08:53;3.70;;;1.60;;
44434;SDS011;30138;20.964;105.830;2023-07-24T04:14:02;1.98;;;1.80;;
44434;SDS011;30138;20.964;105.830;2023-07-24T04:19:12;1.90;;;1.65;;
44434;SDS011;30138;20.964;105.830;2023-07-24T04:29:29;3.15;;;1.60;;
44434;SDS011;30138;20.964;105.830;2023-07-24T04:34:39;2.38;;;1.73;;
44434;SDS011;30138;20.964;105.830;2023-07-24T04:39:48;4.03;;;1.90;;
44434;SDS011;30138;20.964;105.830;2023-07-24T04:44:57;6.30;;;2.80;;
44434;SDS011;30138;20.964;105.830;2023-07-24T04:50:09;6.15;;;2.78;;
44434;SDS011;30138;20.964;105.830;2023-07-24T04:55:18;6.18;;;3.50;;
44434;SDS011;30138;20.964;105.830;2023-07-24T05:00:27;6.82;;;3.67;;
44434;SDS011;30138;20.964;105.830;2023-07-24T05:05:37;11.73;;;3.95;;
44434;SDS011;30138;20.964;105.830;2023-07-24T05:10:53;5.78;;;3.58;;
44434;SDS011;30138;20.964;105.830;2023-07-24T05:16:02;6.68;;;3.80;;
44434;SDS011;30138;20.964;105.830;2023-07-24T05:21:12;11.45;;;4.38;;
44434;SDS011;30138;20.964;105.830;2023-07-24T05:26:20;6.78;;;3.90;;
44434;SDS011;30138;20.964;105.830;2023-07-24T05:31:29;5.95;;;3.38;;
44434;SDS011;30138;20.964;105.830;2023-07-24T05:36:42;6.80;;;3.13;;
44434;SDS011;30138;20.964;105.830;2023-07-24T05:41:50;4.83;;;3.67;;
44434;SDS011;30138;20.964;105.830;2023-07-24T05:47:02;4.47;;;3.13;;
44434;SDS011;30138;20.964;105.830;2023-07-24T05:52:12;15.77;;;4.20;;
44434;SDS011;30138;20.964;105.830;2023-07-24T05:57:20;5.20;;;2.97;;
44434;SDS011;30138;20.964;105.830;2023-07-24T06:02:28;3.88;;;2.83;;
44434;SDS011;30138;20.964;105.830;2023-07-24T06:07:38;6.75;;;3.10;;
44434;SDS011;30138;20.964;105.830;2023-07-24T06:12:47;7.22;;;3.90;;
44434;SDS011;30138;20.964;105.830;2023-07-24T06:17:56;5.93;;;3.10;;
44434;SDS011;30138;20.964;105.830;2023-07-24T06:23:07;6.28;;;3.03;;
44434;SDS011;30138;20.964;105.830;2023-07-24T06:33:22;5.05;;;2.70;;
44434;SDS011;30138;20.964;105.830;2023-07-24T06:38:35;4.57;;;2.80;;
44434;SDS011;30138;20.964;105.830;2023-07-24T06:43:44;2.90;;;2.35;;
44434;SDS011;30138;20.964;105.830;2023-07-24T06:48:53;3.70;;;2.40;;
44434;SDS011;30138;20.964;105.830;2023-07-24T06:54:04;3.25;;;2.53;;
44434;SDS011;30138;20.964;105.830;2023-07-24T06:59:13;4.57;;;2.35;;
44434;SDS011;30138;20.964;105.830;2023-07-24T07:04:21;3.38;;;2.40;;
44434;SDS011;30138;20.964;105.830;2023-07-24T07:09:30;2.47;;;2.28;;
44434;SDS011;30138;20.964;105.830;2023-07-24T07:14:40;5.77;;;2.10;;
44434;SDS011;30138;20.964;105.830;2023-07-24T07:19:48;2.13;;;1.90;;
44434;SDS011;30138;20.964;105.830;2023-07-24T07:25:00;2.38;;;2.10;;
44434;SDS011;30138;20.964;105.830;2023-07-24T07:30:09;2.17;;;1.95;;
44434;SDS011;30138;20.964;105.830;2023-07-24T07:35:18;2.40;;;1.80;;
44434;SDS011;30138;20.964;105.830;2023-07-24T07:40:29;2.33;;;2.00;;
44434;SDS011;30138;20.964;105.830;2023-07-24T07:45:37;1.80;;;1.70;;
44434;SDS011;30138;20.964;105.830;2023-07-24T07:50:50;2.92;;;1.80;;
44434;SDS011;30138;20.964;105.830;2023-07-24T07:56:00;1.95;;;1.75;;
44434;SDS011;30138;20.964;105.830;2023-07-24T08:01:08;2.08;;;1.80;;
44434;SDS011;30138;20.964;105.830;2023-07-24T08:06:17;1.88;;;1.40;;
44434;SDS011;30138;20.964;105.830;2023-07-24T08:11:29;2.58;;;1.90;;
44434;SDS011;30138;20.964;105.830;2023-07-24T08:21:44;3.10;;;1.88;;
44434;SDS011;30138;20.964;105.830;2023-07-24T08:26:57;1.80;;;1.70;;
44434;SDS011;30138;20.964;105.830;2023-07-24T08:32:10;1.70;;;1.55;;
44434;SDS011;30138;20.964;105.830;2023-07-24T08:37:18;1.70;;;1.60;;
44434;SDS011;30138;20.964;105.830;2023-07-24T08:42:29;1.90;;;1.70;;
44434;SDS011;30138;20.964;105.830;2023-07-24T08:47:40;2.00;;;1.83;;
44434;SDS011;30138;20.964;105.830;2023-07-24T08:52:50;1.83;;;1.73;;
44434;SDS011;30138;20.964;105.830;2023-07-24T08:58:01;2.10;;;1.73;;
44434;SDS011;30138;20.964;105.830;2023-07-24T09:03:12;1.65;;;1.55;;
44434;SDS011;30138;20.964;105.830;2023-07-24T09:08:28;1.88;;;1.77;;
44434;SDS011;30138;20.964;105.830;2023-07-24T09:13:40;2.15;;;1.90;;
44434;SDS011;30138;20.964;105.830;2023-07-24T09:18:49;2.17;;;1.95;;
44434;SDS011;30138;20.964;105.830;2023-07-24T09:24:08;6.55;;;2.70;;
44434;SDS011;30138;20.964;105.830;2023-07-24T09:29:20;3.83;;;2.47;;
44434;SDS011;30138;20.964;105.830;2023-07-24T09:34:41;3.05;;;2.75;;
44434;SDS011;30138;20.964;105.830;2023-07-24T09:39:56;4.68;;;2.70;;
44434;SDS011;30138;20.964;105.830;2023-07-24T09:45:08;4.88;;;2.70;;
44434;SDS011;30138;20.964;105.830;2023-07-24T09:50:19;2.92;;;2.63;;
44434;SDS011;30138;20.964;105.830;2023-07-24T10:00:40;7.47;;;5.65;;
44434;SDS011;30138;20.964;105.830;2023-07-24T10:05:50;6.72;;;5.43;;
44434;SDS011;30138;20.964;105.830;2023-07-24T10:11:00;6.33;;;4.83;;
44434;SDS011;30138;20.964;105.830;2023-07-24T10:16:11;5.28;;;4.78;;
44434;SDS011;30138;20.964;105.830;2023-07-24T10:26:33;5.10;;;4.50;;
44434;SDS011;30138;20.964;105.830;2023-07-24T10:31:51;6.87;;;5.40;;
44434;SDS011;30138;20.964;105.830;2023-07-24T10:37:02;10.93;;;9.80;;
44434;SDS011;30138;20.964;105.830;2023-07-24T10:42:13;13.55;;;9.20;;
44434;SDS011;30138;20.964;105.830;2023-07-24T10:47:30;10.15;;;8.70;;
44434;SDS011;30138;20.964;105.830;2023-07-24T10:52:38;10.52;;;8.07;;
44434;SDS011;30138;20.964;105.830;2023-07-24T10:57:46;11.85;;;8.35;;
44434;SDS011;30138;20.964;105.830;2023-07-24T11:02:57;9.35;;;7.20;;
44434;SDS011;30138;20.964;105.830;2023-07-24T11:08:08;7.07;;;6.30;;
44434;SDS011;30138;20.964;105.830;2023-07-24T11:13:18;8.95;;;6.13;;
44434;SDS011;30138;20.964;105.830;2023-07-24T11:18:31;8.20;;;6.35;;
44434;SDS011;30138;20.964;105.830;2023-07-24T11:23:48;7.25;;;6.03;;
44434;SDS011;30138;20.964;105.830;2023-07-24T11:28:59;6.28;;;5.57;;
44434;SDS011;30138;20.964;105.830;2023-07-24T11:34:17;9.43;;;7.05;;
44434;SDS011;30138;20.964;105.830;2023-07-24T11:39:26;15.00;;;9.07;;
44434;SDS011;30138;20.964;105.830;2023-07-24T11:44:35;13.57;;;8.73;;
44434;SDS011;30138;20.964;105.830;2023-07-24T11:49:45;11.68;;;8.45;;
44434;SDS011;30138;20.964;105.830;2023-07-24T11:55:05;10.48;;;7.47;;
44434;SDS011;30138;20.964;105.830;2023-07-24T12:00:18;9.53;;;7.47;;
44434;SDS011;30138;20.964;105.830;2023-07-24T12:05:31;10.80;;;7.82;;
44434;SDS011;30138;20.964;105.830;2023-07-24T12:10:45;10.85;;;7.43;;
44434;SDS011;30138;20.964;105.830;2023-07-24T12:15:54;8.00;;;6.68;;
44434;SDS011;30138;20.964;105.830;2023-07-24T12:21:08;10.35;;;6.72;;
44434;SDS011;30138;20.964;105.830;2023-07-24T12:26:16;11.77;;;7.75;;
44434;SDS011;30138;20.964;105.830;2023-07-24T12:31:27;22.10;;;12.90;;
44434;SDS011;30138;20.964;105.830;2023-07-24T12:41:50;22.00;;;13.53;;
44434;SDS011;30138;20.964;105.830;2023-07-24T12:46:58;23.45;;;13.55;;
44434;SDS011;30138;20.964;105.830;2023-07-24T12:52:09;20.42;;;13.27;;
44434;SDS011;30138;20.964;105.830;2023-07-24T13:02:25;17.30;;;10.70;;
44434;SDS011;30138;20.964;105.830;2023-07-24T13:07:37;17.15;;;10.70;;
44434;SDS011;30138;20.964;105.830;2023-07-24T13:12:47;16.08;;;10.73;;
44434;SDS011;30138;20.964;105.830;2023-07-24T13:17:57;13.60;;;9.43;;
44434;SDS011;30138;20.964;105.830;2023-07-24T13:23:15;15.43;;;9.18;;
44434;SDS011;30138;20.964;105.830;2023-07-24T13:28:24;14.68;;;8.77;;
44434;SDS011;30138;20.964;105.830;2023-07-24T13:33:33;12.85;;;8.48;;
44434;SDS011;30138;20.964;105.830;2023-07-24T13:38:44;12.23;;;8.18;;
44434;SDS011;30138;20.964;105.830;2023-07-24T13:43:55;12.82;;;7.50;;
44434;SDS011;30138;20.964;105.830;2023-07-24T13:49:04;13.13;;;7.57;;
44434;SDS011;30138;20.964;105.830;2023-07-24T13:54:14;13.23;;;7.25;;
44434;SDS011;30138;20.964;105.830;2023-07-24T13:59:24;12.90;;;7.63;;
44434;SDS011;30138;20.964;105.830;2023-07-24T14:04:34;10.40;;;7.18;;
44434;SDS011;30138;20.964;105.830;2023-07-24T14:09:47;10.13;;;6.32;;
44434;SDS011;30138;20.964;105.830;2023-07-24T14:14:58;8.85;;;6.22;;
44434;SDS011;30138;20.964;105.830;2023-07-24T14:20:07;12.93;;;6.82;;
44434;SDS011;30138;20.964;105.830;2023-07-24T14:25:19;11.03;;;6.80;;
44434;SDS011;30138;20.964;105.830;2023-07-24T14:35:36;20.92;;;10.90;;
44434;SDS011;30138;20.964;105.830;2023-07-24T14:40:47;20.35;;;11.05;;
44434;SDS011;30138;20.964;105.830;2023-07-24T14:45:56;20.07;;;9.17;;
44434;SDS011;30138;20.964;105.830;2023-07-24T14:51:05;21.33;;;9.52;;
44434;SDS011;30138;20.964;105.830;2023-07-24T14:56:15;15.95;;;9.07;;
44434;SDS011;30138;20.964;105.830;2023-07-24T15:01:24;14.02;;;8.07;;
44434;SDS011;30138;20.964;105.830;2023-07-24T15:06:34;15.77;;;7.70;;
44434;SDS011;30138;20.964;105.830;2023-07-24T15:11:45;14.27;;;7.45;;
44434;SDS011;30138;20.964;105.830;2023-07-24T15:16:55;12.90;;;7.60;;
44434;SDS011;30138;20.964;105.830;2023-07-24T15:22:04;11.02;;;6.55;;
44434;SDS011;30138;20.964;105.830;2023-07-24T15:27:16;10.93;;;6.32;;
44434;SDS011;30138;20.964;105.830;2023-07-24T15:32:25;10.32;;;5.95;;
44434;SDS011;30138;20.964;105.830;2023-07-24T15:37:34;9.90;;;5.75;;
44434;SDS011;30138;20.964;105.830;2023-07-24T15:42:45;8.35;;;5.78;;
44434;SDS011;30138;20.964;105.830;2023-07-24T15:47:53;9.52;;;6.25;;
44434;SDS011;30138;20.964;105.830;2023-07-24T15:53:02;7.60;;;5.55;;
44434;SDS011;30138;20.964;105.830;2023-07-24T15:58:14;7.18;;;5.28;;
44434;SDS011;30138;20.964;105.830;2023-07-24T16:03:32;7.70;;;5.30;;
44434;SDS011;30138;20.964;105.830;2023-07-24T16:08:41;7.65;;;4.88;;
44434;SDS011;30138;20.964;105.830;2023-07-24T16:14:01;8.45;;;5.20;;
44434;SDS011;30138;20.964;105.830;2023-07-24T16:19:11;7.43;;;4.72;;
44434;SDS011;30138;20.964;105.830;2023-07-24T16:24:23;7.32;;;4.43;;
44434;SDS011;30138;20.964;105.830;2023-07-24T16:29:34;5.65;;;4.30;;
44434;SDS011;30138;20.964;105.830;2023-07-24T16:34:44;7.82;;;4.55;;
44434;SDS011;30138;20.964;105.830;2023-07-24T16:39:53;6.40;;;4.35;;
44434;SDS011;30138;20.964;105.830;2023-07-24T16:45:04;6.85;;;4.50;;
44434;SDS011;30138;20.964;105.830;2023-07-24T16:50:13;5.50;;;4.07;;
44434;SDS011;30138;20.964;105.830;2023-07-24T16:55:21;7.25;;;3.95;;
44434;SDS011;30138;20.964;105.830;2023-07-24T17:00:35;5.35;;;4.10;;
44434;SDS011;30138;20.964;105.830;2023-07-24T17:05:46;4.32;;;3.60;;
44434;SDS011;30138;20.964;105.830;2023-07-24T17:10:54;5.65;;;4.13;;
44434;SDS011;30138;20.964;105.830;2023-07-24T17:16:04;7.07;;;4.88;;
44434;SDS011;30138;20.964;105.830;2023-07-24T17:21:12;13.48;;;6.63;;
44434;SDS011;30138;20.964;105.830;2023-07-24T17:26:21;9.57;;;5.53;;
44434;SDS011;30138;20.964;105.830;2023-07-24T17:31:36;8.60;;;5.40;;
44434;SDS011;30138;20.964;105.830;2023-07-24T17:36:46;7.47;;;5.38;;
44434;SDS011;30138;20.964;105.830;2023-07-24T17:41:56;6.37;;;5.27;;
44434;SDS011;30138;20.964;105.830;2023-07-24T17:47:07;7.82;;;4.72;;
44434;SDS011;30138;20.964;105.830;2023-07-24T17:52:16;7.45;;;5.10;;
44434;SDS011;30138;20.964;105.830;2023-07-24T17:57:24;8.68;;;4.72;;
44434;SDS011;30138;20.964;105.830;2023-07-24T18:02:35;7.72;;;4.53;;
44434;SDS011;30138;20.964;105.830;2023-07-24T18:12:51;6.47;;;4.30;;
44434;SDS011;30138;20.964;105.830;2023-07-24T18:18:02;6.07;;;4.53;;
44434;SDS011;30138;20.964;105.830;2023-07-24T18:23:11;5.30;;;3.58;;
44434;SDS011;30138;20.964;105.830;2023-07-24T18:28:19;6.40;;;3.80;;
44434;SDS011;30138;20.964;105.830;2023-07-24T18:33:34;4.90;;;3.38;;
44434;SDS011;30138;20.964;105.830;2023-07-24T18:38:51;4.60;;;3.17;;
44434;SDS011;30138;20.964;105.830;2023-07-24T18:44:02;3.85;;;3.03;;
44434;SDS011;30138;20.964;105.830;2023-07-24T18:49:16;3.90;;;3.05;;
44434;SDS011;30138;20.964;105.830;2023-07-24T18:54:24;3.60;;;2.80;;
44434;SDS011;30138;20.964;105.830;2023-07-24T18:59:32;4.13;;;2.90;;
44434;SDS011;30138;20.964;105.830;2023-07-24T19:04:42;4.40;;;3.25;;
44434;SDS011;30138;20.964;105.830;2023-07-24T19:09:51;3.72;;;2.78;;
44434;SDS011;30138;20.964;105.830;2023-07-24T19:14:59;5.80;;;2.90;;
44434;SDS011;30138;20.964;105.830;2023-07-24T19:20:10;3.47;;;2.88;;
44434;SDS011;30138;20.964;105.830;2023-07-24T19:30:26;3.88;;;2.80;;
44434;SDS011;30138;20.964;105.830;2023-07-24T19:35:37;3.60;;;2.90;;
44434;SDS011;30138;20.964;105.830;2023-07-24T19:40:53;3.20;;;2.75;;
44434;SDS011;30138;20.964;105.830;2023-07-24T19:46:04;3.35;;;2.75;;
44434;SDS011;30138;20.964;105.830;2023-07-24T19:51:15;4.45;;;2.67;;
44434;SDS011;30138;20.964;105.830;2023-07-24T19:56:24;3.10;;;2.80;;
44434;SDS011;30138;20.964;105.830;2023-07-24T20:01:31;3.63;;;2.70;;
44434;SDS011;30138;20.964;105.830;2023-07-24T20:06:43;4.20;;;2.70;;
44434;SDS011;30138;20.964;105.830;2023-07-24T20:16:59;5.00;;;2.97;;
44434;SDS011;30138;20.964;105.830;2023-07-24T20:22:08;2.78;;;2.40;;
44434;SDS011;30138;20.964;105.830;2023-07-24T20:27:17;3.67;;;2.67;;
44434;SDS011;30138;20.964;105.830;2023-07-24T20:32:27;3.33;;;2.63;;
44434;SDS011;30138;20.964;105.830;2023-07-24T20:37:37;3.28;;;2.70;;
44434;SDS011;30138;20.964;105.830;2023-07-24T20:42:46;4.10;;;2.47;;
44434;SDS011;30138;20.964;105.830;2023-07-24T20:47:54;3.97;;;2.60;;
44434;SDS011;30138;20.964;105.830;2023-07-24T20:53:04;2.88;;;2.30;;
44434;SDS011;30138;20.964;105.830;2023-07-24T20:58:13;3.63;;;2.60;;
44434;SDS011;30138;20.964;105.830;2023-07-24T21:03:21;2.58;;;2.38;;
44434;SDS011;30138;20.964;105.830;2023-07-24T21:08:31;3.35;;;2.42;;
44434;SDS011;30138;20.964;105.830;2023-07-24T21:13:40;2.70;;;2.25;;
44434;SDS011;30138;20.964;105.830;2023-07-24T21:18:48;4.30;;;2.70;;
44434;SDS011;30138;20.964;105.830;2023-07-24T21:23:58;3.17;;;2.35;;
44434;SDS011;30138;20.964;105.830;2023-07-24T21:29:06;3.10;;;2.20;;
44434;SDS011;30138;20.964;105.830;2023-07-24T21:34:14;3.13;;;2.58;;
44434;SDS011;30138;20.964;105.830;2023-07-24T21:39:25;4.60;;;2.70;;
44434;SDS011;30138;20.964;105.830;2023-07-24T21:44:34;4.15;;;3.03;;
44434;SDS011;30138;20.964;105.830;2023-07-24T21:49:42;3.05;;;2.40;;
44434;SDS011;30138;20.964;105.830;2023-07-24T21:54:52;2.72;;;2.40;;
44434;SDS011;30138;20.964;105.830;2023-07-24T22:00:01;4.20;;;2.87;;
44434;SDS011;30138;20.964;105.830;2023-07-24T22:05:13;3.25;;;2.75;;
44434;SDS011;30138;20.964;105.830;2023-07-24T22:10:26;4.60;;;2.45;;
44434;SDS011;30138;20.964;105.830;2023-07-24T22:15:34;3.83;;;2.72;;
44434;SDS011;30138;20.964;105.830;2023-07-24T22:20:42;3.88;;;2.60;;
44434;SDS011;30138;20.964;105.830;2023-07-24T22:25:52;3.42;;;2.45;;
44434;SDS011;30138;20.964;105.830;2023-07-24T22:31:07;6.93;;;2.67;;
44434;SDS011;30138;20.964;105.830;2023-07-24T22:36:15;4.28;;;2.60;;
44434;SDS011;30138;20.964;105.830;2023-07-24T22:41:29;3.40;;;2.65;;
44434;SDS011;30138;20.964;105.830;2023-07-24T22:46:37;6.22;;;2.65;;
44434;SDS011;30138;20.964;105.830;2023-07-24T22:51:45;2.90;;;2.47;;
44434;SDS011;30138;20.964;105.830;2023-07-24T22:56:56;4.22;;;2.92;;
44434;SDS011;30138;20.964;105.830;2023-07-24T23:02:05;3.42;;;2.47;;
44434;SDS011;30138;20.964;105.830;2023-07-24T23:07:13;3.33;;;2.63;;
44434;SDS011;30138;20.964;105.830;2023-07-24T23:12:23;3.20;;;2.65;;
44434;SDS011;30138;20.964;105.830;2023-07-24T23:17:32;3.70;;;2.55;;
44434;SDS011;30138;20.964;105.830;2023-07-24T23:22:41;4.90;;;2.95;;
44434;SDS011;30138;20.964;105.830;2023-07-24T23:27:51;2.80;;;2.50;;
44434;SDS011;30138;20.964;105.830;2023-07-24T23:32:59;2.67;;;2.45;;
44434;SDS011;30138;20.964;105.830;2023-07-24T23:38:08;3.03;;;2.42;;
44434;SDS011;30138;20.964;105.830;2023-07-24T23:43:18;3.13;;;2.67;;
44434;SDS011;30138;20.964;105.830;2023-07-24T23:48:26;4.05;;;2.70;;
44434;SDS011;30138;20.964;105.830;2023-07-24T23:53:34;2.60;;;2.40;;
44434;SDS011;30138;20.964;105.830;2023-07-24T23:58:45;3.28;;;2.40;;
